createdAt,value
2022-07-26T00:00:49.933Z,83.32
2022-07-26T00:03:17.229Z,85.20
2022-07-26T00:05:44.316Z,90.10
2022-07-26T00:08:11.399Z,84.10
2022-07-26T00:10:40.907Z,82.70
2022-07-26T00:13:08.398Z,77.00
2022-07-26T00:15:36.834Z,89.28
2022-07-26T00:18:04.845Z,87.05
2022-07-26T00:20:36.500Z,94.95
2022-07-26T00:23:06.404Z,81.50
2022-07-26T00:25:34.205Z,86.20
2022-07-26T00:28:02.451Z,85.82
2022-07-26T00:30:30.114Z,93.22
2022-07-26T00:32:57.241Z,101.88
2022-07-26T00:35:25.572Z,83.20
2022-07-26T00:37:54.127Z,86.82
2022-07-26T00:40:21.538Z,87.80
2022-07-26T00:42:48.822Z,82.13
2022-07-26T00:45:16.800Z,80.80
2022-07-26T00:47:44.406Z,86.32
2022-07-26T00:50:16.800Z,101.28
2022-07-26T00:52:46.055Z,89.20
2022-07-26T00:55:13.852Z,93.93
2022-07-26T00:57:41.529Z,95.07
2022-07-26T01:00:17.770Z,95.90
2022-07-26T01:02:45.478Z,95.25
2022-07-26T01:05:13.591Z,91.72
2022-07-26T01:07:41.016Z,94.05
2022-07-26T01:10:12.736Z,89.75
2022-07-26T01:12:43.864Z,119.75
2022-07-26T01:15:12.593Z,94.07
2022-07-26T01:17:40.307Z,87.60
2022-07-26T01:20:10.525Z,103.97
2022-07-26T01:22:37.758Z,90.30
2022-07-26T01:25:05.699Z,105.82
2022-07-26T01:27:39.430Z,96.30
2022-07-26T01:30:12.063Z,96.72
2022-07-26T01:32:39.598Z,100.80
2022-07-26T01:35:07.988Z,100.63
2022-07-26T01:37:35.357Z,102.93
2022-07-26T01:40:03.001Z,94.55
2022-07-26T01:42:30.046Z,96.53
2022-07-26T01:44:57.205Z,104.00
2022-07-26T01:47:24.460Z,116.43
2022-07-26T01:49:51.586Z,105.55
2022-07-26T01:52:18.954Z,117.10
2022-07-26T01:54:46.353Z,118.80
2022-07-26T01:57:13.559Z,109.78
2022-07-26T01:59:40.875Z,104.03
2022-07-26T02:02:08.097Z,107.90
2022-07-26T02:04:54.183Z,105.65
2022-07-26T02:07:24.252Z,113.40
2022-07-26T02:09:52.778Z,112.75
2022-07-26T02:12:20.017Z,112.55
2022-07-26T02:14:47.233Z,108.75
2022-07-26T02:17:14.479Z,109.32
2022-07-26T02:19:41.641Z,106.07
2022-07-26T02:22:09.144Z,111.10
2022-07-26T02:24:37.268Z,129.48
2022-07-26T02:27:05.523Z,128.45
2022-07-26T02:29:32.754Z,111.90
2022-07-26T02:32:00.257Z,128.63
2022-07-26T02:34:29.931Z,123.90
2022-07-26T02:36:59.702Z,103.22
2022-07-26T02:39:29.699Z,105.97
2022-07-26T02:41:58.590Z,112.00
2022-07-26T02:44:26.889Z,113.10
2022-07-26T02:46:54.324Z,110.68
2022-07-26T02:49:22.323Z,107.10
2022-07-26T02:51:49.532Z,106.85
2022-07-26T02:54:16.909Z,107.30
2022-07-26T02:56:44.020Z,126.30
2022-07-26T02:59:11.242Z,129.68
2022-07-26T03:01:39.846Z,109.20
2022-07-26T03:04:10.167Z,116.15
2022-07-26T03:09:04.700Z,91.50
2022-07-26T03:11:31.852Z,124.22
2022-07-26T03:13:58.923Z,119.82
2022-07-26T03:16:29.452Z,135.77
2022-07-26T03:18:57.765Z,137.15
2022-07-26T03:21:24.926Z,107.18
2022-07-26T03:23:52.191Z,98.10
2022-07-26T03:26:19.723Z,110.65
2022-07-26T03:28:50.473Z,104.78
2022-07-26T03:31:17.613Z,109.97
2022-07-26T03:33:44.910Z,110.45
2022-07-26T03:36:15.689Z,98.13
2022-07-26T03:38:43.803Z,103.75
2022-07-26T03:41:13.423Z,100.75
2022-07-26T03:43:41.144Z,134.50
2022-07-26T03:46:08.566Z,111.25
2022-07-26T03:48:36.021Z,118.18
2022-07-26T03:51:03.312Z,115.47
2022-07-26T03:53:30.541Z,107.50
2022-07-26T03:56:16.148Z,98.85
2022-07-26T03:58:43.393Z,104.50
2022-07-26T04:01:10.445Z,110.43
2022-07-26T04:03:37.509Z,105.15
2022-07-26T04:06:05.366Z,97.60
2022-07-26T04:08:33.366Z,103.53
2022-07-26T04:11:00.418Z,104.03
2022-07-26T04:13:27.671Z,121.47
2022-07-26T04:15:54.765Z,105.88
2022-07-26T04:18:22.373Z,95.03
2022-07-26T04:20:51.972Z,111.90
2022-07-26T04:23:19.123Z,104.22
2022-07-26T04:25:46.212Z,98.97
2022-07-26T04:28:14.002Z,103.13
2022-07-26T04:30:41.683Z,90.10
2022-07-26T04:33:09.354Z,100.32
2022-07-26T04:35:36.512Z,99.25
2022-07-26T04:38:04.276Z,98.18
2022-07-26T04:40:33.683Z,98.05
2022-07-26T04:43:02.167Z,98.35
2022-07-26T04:45:29.989Z,105.38
2022-07-26T04:47:57.623Z,98.85
2022-07-26T04:50:25.971Z,87.45
2022-07-26T04:52:53.113Z,94.93
2022-07-26T04:55:20.321Z,98.72
2022-07-26T04:57:48.639Z,94.65
2022-07-26T05:00:23.022Z,100.32
2022-07-26T05:02:56.621Z,102.50
2022-07-26T05:05:25.010Z,87.25
2022-07-26T05:07:58.404Z,89.57
2022-07-26T05:10:37.337Z,90.75
2022-07-26T05:13:05.872Z,92.63
2022-07-26T05:15:35.447Z,88.20
2022-07-26T05:18:06.705Z,86.53
2022-07-26T05:20:35.265Z,81.55
2022-07-26T05:23:02.611Z,100.18
2022-07-26T05:25:30.064Z,94.25
2022-07-26T05:27:57.187Z,98.45
2022-07-26T05:30:24.586Z,81.22
2022-07-26T05:32:51.732Z,86.85
2022-07-26T05:35:18.914Z,88.38
2022-07-26T05:37:46.107Z,89.03
2022-07-26T05:40:14.826Z,95.80
2022-07-26T05:42:41.926Z,98.50
2022-07-26T05:45:09.459Z,89.57
2022-07-26T05:47:36.976Z,84.10
2022-07-26T05:50:05.919Z,114.95
2022-07-26T05:52:33.053Z,89.20
2022-07-26T05:55:00.220Z,105.90
2022-07-26T05:57:27.587Z,101.82
2022-07-26T05:59:55.766Z,90.55
2022-07-26T06:02:22.979Z,110.07
2022-07-26T06:04:50.126Z,112.63
2022-07-26T06:07:17.289Z,117.18
2022-07-26T06:09:44.614Z,103.72
2022-07-26T06:12:11.750Z,113.72
2022-07-26T06:14:38.923Z,105.13
2022-07-26T06:17:06.093Z,95.82
2022-07-26T06:19:33.587Z,94.22
2022-07-26T06:22:00.968Z,86.53
2022-07-26T06:24:28.141Z,84.72
2022-07-26T06:26:58.124Z,94.40
2022-07-26T06:29:32.852Z,88.97
2022-07-26T06:32:00.202Z,98.90
2022-07-26T06:34:27.482Z,98.38
2022-07-26T06:36:54.589Z,98.85
2022-07-26T06:39:21.758Z,123.38
2022-07-26T06:41:49.191Z,111.57
2022-07-26T06:44:22.980Z,116.85
2022-07-26T06:46:50.325Z,117.68
2022-07-26T06:49:22.258Z,146.35
2022-07-26T06:51:50.195Z,122.35
2022-07-26T06:54:17.554Z,114.35
2022-07-26T06:56:44.700Z,123.20
2022-07-26T06:59:11.760Z,109.28
2022-07-26T07:01:58.459Z,122.13
2022-07-26T07:04:26.161Z,96.30
2022-07-26T07:06:53.333Z,102.45
2022-07-26T07:09:23.165Z,81.32
2022-07-26T07:11:56.235Z,79.78
2022-07-26T07:14:23.480Z,82.28
2022-07-26T07:16:50.606Z,81.45
2022-07-26T07:19:17.810Z,84.43
2022-07-26T07:21:44.808Z,89.18
2022-07-26T07:24:12.141Z,87.57
2022-07-26T07:26:39.410Z,83.25
2022-07-26T07:29:06.809Z,84.38
2022-07-26T07:31:48.125Z,85.85
2022-07-26T07:34:19.490Z,82.32
2022-07-26T07:36:47.124Z,83.25
2022-07-26T07:39:17.342Z,84.40
2022-07-26T07:41:46.121Z,87.47
2022-07-26T07:44:13.512Z,81.97
2022-07-26T07:46:40.651Z,98.95
2022-07-26T07:49:08.367Z,81.85
2022-07-26T07:51:36.200Z,105.10
2022-07-26T07:54:06.004Z,91.85
2022-07-26T07:56:33.984Z,98.67
2022-07-26T07:59:01.192Z,93.85
2022-07-26T08:01:40.543Z,106.25
2022-07-26T08:04:12.672Z,91.28
2022-07-26T08:06:40.798Z,113.35
2022-07-26T08:09:09.695Z,98.78
2022-07-26T08:11:41.888Z,119.38
2022-07-26T08:14:10.313Z,115.97
2022-07-26T08:16:38.877Z,128.57
2022-07-26T08:19:07.738Z,121.13
2022-07-26T08:21:36.657Z,132.13
2022-07-26T08:24:03.935Z,112.10
2022-07-26T08:26:31.028Z,111.22
2022-07-26T08:28:59.865Z,104.32
2022-07-26T08:31:28.970Z,129.00
2022-07-26T08:33:56.533Z,127.07
2022-07-26T08:36:24.248Z,94.32
2022-07-26T08:38:52.676Z,96.10
2022-07-26T08:41:20.031Z,103.40
2022-07-26T08:43:53.227Z,88.95
2022-07-26T08:46:25.939Z,94.97
2022-07-26T08:48:56.825Z,81.47
2022-07-26T08:51:25.369Z,70.97
2022-07-26T08:54:05.417Z,81.47
2022-07-26T08:59:06.369Z,68.22
2022-07-26T09:01:33.734Z,76.68
2022-07-26T09:04:31.640Z,75.63
2022-07-26T09:07:12.137Z,62.50
2022-07-26T09:09:56.658Z,67.22
2022-07-26T09:12:25.797Z,68.15
2022-07-26T09:14:53.827Z,68.38
2022-07-26T09:17:22.858Z,68.97
2022-07-26T09:20:14.016Z,62.08
2022-07-26T09:23:08.312Z,56.95
2022-07-26T09:25:37.851Z,51.65
2022-07-26T09:28:21.732Z,52.08
2022-07-26T09:30:57.974Z,49.83
2022-07-26T09:33:26.612Z,54.42
2022-07-26T09:36:03.059Z,48.80
2022-07-26T09:38:41.679Z,41.53
2022-07-26T09:41:38.195Z,45.22
2022-07-26T09:44:19.104Z,44.92
2022-07-26T09:46:57.750Z,46.13
2022-07-26T09:49:40.246Z,45.25
2022-07-26T09:52:28.232Z,44.13
2022-07-26T09:55:04.299Z,47.17
2022-07-26T09:57:35.220Z,48.42
2022-07-26T10:00:05.888Z,40.80
2022-07-26T10:02:35.131Z,38.55
2022-07-26T10:05:02.310Z,40.72
2022-07-26T10:07:29.618Z,57.20
2022-07-26T10:10:13.181Z,64.07
2022-07-26T10:12:44.276Z,70.63
2022-07-26T10:15:42.852Z,67.63
2022-07-26T10:18:31.934Z,88.10
2022-07-26T10:20:59.624Z,84.55
2022-07-26T10:23:39.459Z,82.88
2022-07-26T10:26:09.943Z,74.70
2022-07-26T10:28:40.334Z,65.55
2022-07-26T10:31:29.649Z,70.03
2022-07-26T10:33:59.660Z,60.30
2022-07-26T10:36:47.732Z,52.63
2022-07-26T10:39:16.501Z,49.35
2022-07-26T10:41:57.137Z,53.83
2022-07-26T10:44:34.504Z,52.08
2022-07-26T10:47:07.764Z,58.75
2022-07-26T10:49:43.524Z,47.80
2022-07-26T10:52:19.574Z,47.95
2022-07-26T10:55:04.566Z,56.70
2022-07-26T10:57:40.518Z,51.15
2022-07-26T11:00:13.457Z,47.05
2022-07-26T11:02:43.537Z,55.95
2022-07-26T11:05:16.452Z,54.40
2022-07-26T11:07:55.396Z,63.72
2022-07-26T11:10:34.571Z,51.97
2022-07-26T11:13:01.538Z,22.45
2022-07-26T11:15:28.751Z,19.42
2022-07-26T11:18:16.836Z,12.00
2022-07-26T11:20:46.695Z,10.43
2022-07-26T11:23:25.178Z,8.98
2022-07-26T11:26:11.555Z,10.25
2022-07-26T11:28:48.806Z,8.00
2022-07-26T11:31:17.786Z,6.50
2022-07-26T11:33:50.934Z,7.28
2022-07-26T11:36:31.110Z,7.05
2022-07-26T11:38:58.829Z,6.20
2022-07-26T11:41:34.655Z,7.10
2022-07-26T11:44:03.955Z,5.72
2022-07-26T11:46:39.474Z,8.07
2022-07-26T11:49:41.511Z,6.80
2022-07-26T11:52:12.264Z,6.28
2022-07-26T11:54:46.063Z,5.63
2022-07-26T11:57:14.908Z,5.28
2022-07-26T11:59:45.057Z,5.88
2022-07-26T12:02:12.607Z,5.63
2022-07-26T12:04:42.604Z,6.32
2022-07-26T12:07:12.250Z,6.00
2022-07-26T12:09:43.135Z,6.57
2022-07-26T12:12:19.789Z,8.43
2022-07-26T12:15:02.067Z,7.25
2022-07-26T12:17:35.262Z,6.82
2022-07-26T12:20:17.849Z,8.57
2022-07-26T12:23:05.088Z,6.38
2022-07-26T12:25:32.436Z,7.70
2022-07-26T12:27:59.533Z,9.35
2022-07-26T12:30:30.694Z,12.68
2022-07-26T12:33:02.270Z,13.45
2022-07-26T12:35:33.558Z,12.00
2022-07-26T12:38:00.901Z,16.90
2022-07-26T12:40:40.172Z,19.40
2022-07-26T12:43:07.141Z,14.30
2022-07-26T12:45:35.599Z,20.38
2022-07-26T12:48:07.356Z,12.02
2022-07-26T12:50:34.491Z,16.83
2022-07-26T12:53:07.102Z,14.32
2022-07-26T12:55:35.000Z,13.02
2022-07-26T12:58:02.239Z,14.20
2022-07-26T13:00:29.943Z,16.80
2022-07-26T13:02:58.077Z,18.80
2022-07-26T13:05:25.139Z,11.00
2022-07-26T13:07:52.489Z,16.83
2022-07-26T13:10:33.056Z,12.25
2022-07-26T13:13:01.015Z,12.98
2022-07-26T13:15:36.068Z,13.18
2022-07-26T13:18:08.830Z,26.67
2022-07-26T13:20:39.455Z,14.93
2022-07-26T13:25:41.115Z,6.22
2022-07-26T13:28:09.351Z,10.25
2022-07-26T13:30:39.256Z,9.00
2022-07-26T13:33:07.116Z,12.23
2022-07-26T13:35:34.247Z,13.43
2022-07-26T13:38:01.192Z,16.73
2022-07-26T13:40:31.651Z,18.42
2022-07-26T13:42:59.420Z,25.52
2022-07-26T13:45:32.226Z,41.35
2022-07-26T13:47:59.751Z,61.00
2022-07-26T13:50:28.192Z,84.38
2022-07-26T13:52:56.974Z,78.38
2022-07-26T13:55:25.569Z,82.00
2022-07-26T13:57:56.118Z,71.22
2022-07-26T14:00:26.015Z,67.82
2022-07-26T14:02:53.806Z,83.53
2022-07-26T14:05:20.901Z,67.18
2022-07-26T14:07:48.003Z,69.72
2022-07-26T14:10:15.990Z,63.05
2022-07-26T14:12:43.118Z,57.75
2022-07-26T14:15:15.234Z,76.65
2022-07-26T14:17:47.369Z,60.85
2022-07-26T14:20:17.152Z,72.28
2022-07-26T14:22:44.976Z,54.70
2022-07-26T14:25:12.124Z,55.40
2022-07-26T14:27:39.208Z,66.70
2022-07-26T14:30:06.984Z,62.50
2022-07-26T14:32:35.261Z,76.93
2022-07-26T14:35:02.629Z,68.63
2022-07-26T14:37:43.411Z,71.93
2022-07-26T14:40:15.717Z,51.17
2022-07-26T14:42:43.491Z,57.85
2022-07-26T14:45:11.036Z,61.80
2022-07-26T14:47:38.334Z,62.00
2022-07-26T14:50:07.876Z,64.25
2022-07-26T14:52:43.511Z,71.22
2022-07-26T14:55:12.097Z,54.95
2022-07-26T14:57:40.476Z,61.72
2022-07-26T15:00:15.909Z,58.30
2022-07-26T15:02:45.775Z,50.72
2022-07-26T15:05:13.896Z,52.40
2022-07-26T15:07:42.080Z,57.53
2022-07-26T15:10:12.073Z,55.78
2022-07-26T15:12:40.468Z,40.13
2022-07-26T15:15:08.728Z,43.40
2022-07-26T15:17:36.425Z,50.15
2022-07-26T15:20:05.588Z,42.38
2022-07-26T15:22:32.817Z,47.90
2022-07-26T15:24:59.874Z,43.28
2022-07-26T15:27:29.903Z,49.17
2022-07-26T15:30:03.540Z,42.65
2022-07-26T15:32:33.457Z,42.10
2022-07-26T15:35:00.593Z,43.60
2022-07-26T15:37:28.280Z,41.20
2022-07-26T15:40:15.877Z,36.75
2022-07-26T15:42:45.696Z,34.72
2022-07-26T15:45:13.699Z,22.25
2022-07-26T15:48:05.491Z,31.20
2022-07-26T15:50:28.938Z,26.33
2022-07-26T15:52:56.008Z,33.35
2022-07-26T15:55:23.246Z,31.83
2022-07-26T15:57:50.357Z,25.08
2022-07-26T16:00:17.952Z,26.40
2022-07-26T16:02:45.565Z,27.27
2022-07-26T16:05:12.895Z,26.30
2022-07-26T16:07:41.721Z,26.67
2022-07-26T16:10:12.656Z,25.92
2022-07-26T16:12:41.537Z,24.80
2022-07-26T16:15:10.267Z,21.80
2022-07-26T16:17:37.557Z,25.38
2022-07-26T16:20:07.106Z,19.45
2022-07-26T16:22:34.716Z,21.20
2022-07-26T16:25:01.840Z,20.02
2022-07-26T16:27:29.956Z,21.00
2022-07-26T16:29:57.036Z,17.58
2022-07-26T16:32:24.406Z,20.88
2022-07-26T16:34:51.604Z,22.13
2022-07-26T16:37:18.837Z,22.83
2022-07-26T16:39:46.015Z,32.28
2022-07-26T16:42:14.160Z,40.38
2022-07-26T16:44:47.856Z,37.30
2022-07-26T16:47:40.419Z,39.30
2022-07-26T16:50:10.869Z,50.83
2022-07-26T16:55:07.708Z,43.63
2022-07-26T16:57:35.538Z,53.47
2022-07-26T17:00:10.243Z,79.28
2022-07-26T17:02:38.351Z,75.00
2022-07-26T17:05:07.498Z,76.85
2022-07-26T17:07:38.627Z,68.28
2022-07-26T17:10:08.148Z,69.63
2022-07-26T17:12:35.501Z,64.97
2022-07-26T17:15:02.518Z,52.25
2022-07-26T17:17:29.563Z,53.10
2022-07-26T17:19:56.611Z,43.75
2022-07-26T17:22:23.990Z,45.45
2022-07-26T17:24:51.233Z,41.33
2022-07-26T17:27:18.328Z,40.85
2022-07-26T17:29:45.685Z,45.17
2022-07-26T17:32:12.762Z,45.08
2022-07-26T17:34:39.836Z,41.88
2022-07-26T17:37:10.042Z,45.20
2022-07-26T17:39:52.718Z,39.05
2022-07-26T17:42:22.783Z,23.90
2022-07-26T17:44:50.589Z,30.48
2022-07-26T17:47:28.574Z,34.70
2022-07-26T17:50:13.942Z,34.00
2022-07-26T17:52:47.334Z,31.83
2022-07-26T17:55:15.982Z,33.63
2022-07-26T17:57:43.089Z,41.47
2022-07-26T18:00:11.060Z,39.97
2022-07-26T18:02:38.135Z,41.50
2022-07-26T18:05:05.464Z,38.15
2022-07-26T18:07:32.860Z,43.88
2022-07-26T18:10:00.906Z,45.15
2022-07-26T18:12:28.165Z,50.78
2022-07-26T18:14:55.219Z,37.95
2022-07-26T18:17:22.404Z,41.95
2022-07-26T18:19:49.912Z,42.33
2022-07-26T18:22:16.984Z,39.08
2022-07-26T18:24:44.173Z,42.30
2022-07-26T18:27:11.173Z,45.08
2022-07-26T18:29:38.527Z,60.67
2022-07-26T18:32:05.822Z,132.93
2022-07-26T18:34:32.996Z,111.40
2022-07-26T18:37:00.095Z,116.97
2022-07-26T18:39:32.815Z,108.28
2022-07-26T18:42:01.150Z,117.70
2022-07-26T18:44:28.170Z,108.80
2022-07-26T18:46:56.322Z,106.50
2022-07-26T18:49:30.823Z,101.32
2022-07-26T18:52:01.705Z,99.82
2022-07-26T18:54:32.670Z,96.05
2022-07-26T18:56:59.871Z,96.78
2022-07-26T18:59:26.926Z,94.82
2022-07-26T19:01:53.976Z,92.35
2022-07-26T19:04:21.717Z,98.22
2022-07-26T19:06:49.784Z,114.15
2022-07-26T19:09:17.080Z,97.63
2022-07-26T19:11:47.134Z,105.70
2022-07-26T19:14:14.775Z,114.68
2022-07-26T19:16:41.873Z,109.30
2022-07-26T19:19:09.254Z,104.75
2022-07-26T19:21:36.716Z,121.05
2022-07-26T19:24:03.938Z,127.43
2022-07-26T19:26:31.055Z,139.75
2022-07-26T19:28:58.427Z,128.63
2022-07-26T19:31:25.554Z,130.88
2022-07-26T19:33:52.626Z,133.95
2022-07-26T19:36:25.584Z,146.88
2022-07-26T19:38:55.875Z,149.57
2022-07-26T19:41:23.295Z,159.10
2022-07-26T19:43:50.197Z,146.57
2022-07-26T19:46:17.238Z,148.77
2022-07-26T19:48:45.373Z,149.00
2022-07-26T19:51:12.658Z,134.88
2022-07-26T19:53:39.842Z,143.63
2022-07-26T19:56:07.860Z,135.70
2022-07-26T19:58:35.912Z,129.82
2022-07-26T20:01:04.945Z,133.35
2022-07-26T20:03:32.299Z,130.70
2022-07-26T20:06:00.822Z,111.55
2022-07-26T20:08:27.848Z,96.30
2022-07-26T20:10:54.906Z,128.60
2022-07-26T20:13:21.896Z,121.75
2022-07-26T20:15:49.057Z,103.68
2022-07-26T20:18:19.540Z,108.32
2022-07-26T20:23:13.437Z,94.22
2022-07-26T20:25:40.533Z,103.22
2022-07-26T20:28:07.652Z,112.85
2022-07-26T20:30:34.792Z,125.38
2022-07-26T20:33:01.805Z,94.25
2022-07-26T20:35:32.334Z,126.82
2022-07-26T20:40:28.938Z,83.00
2022-07-26T20:42:56.128Z,95.80
2022-07-26T20:45:25.964Z,112.07
2022-07-26T20:47:54.412Z,110.13
2022-07-26T20:50:23.351Z,98.97
2022-07-26T20:52:51.277Z,108.85
2022-07-26T20:55:19.034Z,101.93
2022-07-26T20:57:47.100Z,93.15
2022-07-26T21:00:15.345Z,125.10
2022-07-26T21:02:42.724Z,109.32
2022-07-26T21:05:10.559Z,121.30
2022-07-26T21:07:55.135Z,103.65
2022-07-26T21:10:25.352Z,95.57
2022-07-26T21:12:53.144Z,132.85
2022-07-26T21:15:20.350Z,109.82
2022-07-26T21:17:47.317Z,98.57
2022-07-26T21:20:15.150Z,105.00
2022-07-26T21:22:42.285Z,102.15
2022-07-26T21:25:09.612Z,115.55
2022-07-26T21:27:37.621Z,110.95
2022-07-26T21:30:07.152Z,135.23
2022-07-26T21:32:34.659Z,104.70
2022-07-26T21:35:01.834Z,127.93
2022-07-26T21:37:29.039Z,119.35
2022-07-26T21:39:56.420Z,107.10
2022-07-26T21:42:28.006Z,125.50
2022-07-26T21:44:55.273Z,111.80
2022-07-26T21:47:22.251Z,110.47
2022-07-26T21:49:49.487Z,140.50
2022-07-26T21:52:16.512Z,119.18
2022-07-26T21:54:43.628Z,135.25
2022-07-26T21:57:10.794Z,114.15
2022-07-26T21:59:39.108Z,117.10
2022-07-26T22:02:06.487Z,107.38
2022-07-26T22:04:33.679Z,106.40
2022-07-26T22:07:00.777Z,128.68
2022-07-26T22:09:27.936Z,115.28
2022-07-26T22:11:55.075Z,110.13
2022-07-26T22:14:22.327Z,110.68
2022-07-26T22:16:49.690Z,114.55
2022-07-26T22:19:16.905Z,113.80
2022-07-26T22:21:44.118Z,106.97
2022-07-26T22:24:11.131Z,116.90
2022-07-26T22:26:40.523Z,109.15
2022-07-26T22:29:09.368Z,135.07
2022-07-26T22:31:36.830Z,116.40
2022-07-26T22:34:04.039Z,119.93
2022-07-26T22:36:31.291Z,105.80
2022-07-26T22:38:58.347Z,113.38
2022-07-26T22:41:25.454Z,133.38
2022-07-26T22:43:53.153Z,105.40
2022-07-26T22:46:29.395Z,110.05
2022-07-26T22:48:56.948Z,118.05
2022-07-26T22:51:24.141Z,120.28
2022-07-26T22:53:51.844Z,104.05
2022-07-26T22:56:19.908Z,111.88
2022-07-26T22:58:47.229Z,107.97
2022-07-26T23:01:16.518Z,125.20
2022-07-26T23:03:44.510Z,117.32
2022-07-26T23:06:29.552Z,102.15
2022-07-26T23:08:58.963Z,111.45
2022-07-26T23:11:25.955Z,123.93
2022-07-26T23:13:59.222Z,120.72
2022-07-26T23:16:27.024Z,100.57
2022-07-26T23:18:54.317Z,106.93
2022-07-26T23:21:21.363Z,119.20
2022-07-26T23:23:48.514Z,112.10
2022-07-26T23:26:15.631Z,109.38
2022-07-26T23:28:42.790Z,120.68
2022-07-26T23:31:11.915Z,118.22
2022-07-26T23:33:52.482Z,121.43
2022-07-26T23:36:28.629Z,126.68
2022-07-26T23:38:58.127Z,120.90
2022-07-26T23:41:26.205Z,112.43
2022-07-26T23:43:54.593Z,119.60
2022-07-26T23:46:22.213Z,113.13
2022-07-26T23:48:50.455Z,108.22
2022-07-26T23:51:19.585Z,115.95
2022-07-26T23:53:47.618Z,117.95
2022-07-26T23:56:15.622Z,114.97
2022-07-26T23:58:44.091Z,130.23
